This is the latest recevied weather packets stored in our database for station/object OK1VCF-5. If no packets are shown the sender has not sent any weather packets the latest 10 day(s).
| Time | Temp. | Humidity | Pressure | Rain* | Wind** | Luminosity | Snow |
|---|---|---|---|---|---|---|---|
| 1777379769 | 20° C | - | - | - | - | - | - |
| 1777378868 | 19.44° C | - | 1624.2 hPa | - | - | - | - |
| 1777378867 | 19.44° C | 26% | 1024.2 hPa | - | - | - | - |
| 1777377968 | 20° C | 31% | 1024.1 hPa | - | - | - | - |
| 1777376167 | 20° C | 30% | 1024.5 hPa | - | - | - | - |
| 1777375266 | 20° C | 29% | 1024.7 hPa | - | - | - | - |
| 1777374656 | 20.56° C | 27% | 1024.8 hPa | - | - | - | - |
| 1777374364 | 20.56° C | 27% | 1024.8 hPa | - | - | - | - |
| 1777373464 | 20° C | 28% | 1024.8 hPa | - | - | - | - |
| 1777372564 | 18.89° C | 29% | 1024.9 hPa | - | - | - | - |
| 1777371663 | 18.89° C | 28% | 1025 hPa | - | - | - | - |
| 1777370762 | 19.44° C | 28% | 1025.2 hPa | - | - | - | - |
| 1777369862 | 18.89° C | 31% | 1025.3 hPa | - | - | - | - |
| 1777369266 | 17.22° C | 35% | 1025.4 hPa | - | - | - | - |
| 1777368961 | 17.22° C | 35% | 1025.4 hPa | - | - | - | - |
| 1777368059 | 17.78° C | 36% | 1025.5 hPa | - | - | - | - |
| 1777367159 | 17.78° C | 37% | 1025.4 hPa | - | - | - | - |
| 1777366257 | 16.67° C | 39% | 1025.6 hPa | - | - | - | - |
| 1777365362 | 16.67° C | 40% | 1025.6 hPa | - | - | - | - |
| 1777364456 | 15.56° C | 44% | 1025.8 hPa | - | - | - | - |
| 1777363725 | 15° C | 48% | 1025.8 hPa | - | - | - | - |
| 1777363554 | 15° C | 48% | 1025.8 hPa | - | - | - | - |
| 1777362654 | 13.33° C | 52% | 1026 hPa | - | - | - | - |
| 1777361754 | 12.22° C | 55% | 1026 hPa | - | - | - | - |
| 1777360854 | 11.11° C | 56% | 1026.2 hPa | - | - | - | - |
* Rain since midnight (hover to see other rain measurements)
** Current wind speed in m/s (hover to see current wind gust speed)